sensor_id;sensor_type;location;lat;lon;timestamp;P1;durP1;ratioP1;P2;durP2;ratioP2
10144;SDS011;5113;41.822;23.564;2023-07-31T00:01:59;3.73;;;3.53;;
10144;SDS011;5113;41.822;23.564;2023-07-31T00:05:05;3.37;;;3.10;;
10144;SDS011;5113;41.822;23.564;2023-07-31T00:08:12;3.40;;;3.10;;
10144;SDS011;5113;41.822;23.564;2023-07-31T00:11:18;4.57;;;4.23;;
10144;SDS011;5113;41.822;23.564;2023-07-31T00:14:25;3.70;;;3.40;;
10144;SDS011;5113;41.822;23.564;2023-07-31T00:17:33;3.50;;;3.20;;
10144;SDS011;5113;41.822;23.564;2023-07-31T00:20:40;3.50;;;3.20;;
10144;SDS011;5113;41.822;23.564;2023-07-31T00:23:46;3.63;;;3.30;;
10144;SDS011;5113;41.822;23.564;2023-07-31T00:26:53;3.27;;;3.07;;
10144;SDS011;5113;41.822;23.564;2023-07-31T00:29:59;3.37;;;3.07;;
10144;SDS011;5113;41.822;23.564;2023-07-31T00:33:07;3.23;;;3.03;;
10144;SDS011;5113;41.822;23.564;2023-07-31T00:36:14;3.10;;;2.90;;
10144;SDS011;5113;41.822;23.564;2023-07-31T00:39:20;3.40;;;3.20;;
10144;SDS011;5113;41.822;23.564;2023-07-31T00:42:27;3.13;;;2.93;;
10144;SDS011;5113;41.822;23.564;2023-07-31T00:45:33;2.87;;;2.57;;
10144;SDS011;5113;41.822;23.564;2023-07-31T00:48:41;2.90;;;2.70;;
10144;SDS011;5113;41.822;23.564;2023-07-31T00:51:48;2.80;;;2.60;;
10144;SDS011;5113;41.822;23.564;2023-07-31T00:54:55;2.67;;;2.47;;
10144;SDS011;5113;41.822;23.564;2023-07-31T00:58:02;3.47;;;3.23;;
10144;SDS011;5113;41.822;23.564;2023-07-31T01:01:09;3.33;;;3.13;;
10144;SDS011;5113;41.822;23.564;2023-07-31T01:04:17;3.87;;;3.57;;
10144;SDS011;5113;41.822;23.564;2023-07-31T01:07:27;4.20;;;3.80;;
10144;SDS011;5113;41.822;23.564;2023-07-31T01:10:41;3.70;;;3.50;;
10144;SDS011;5113;41.822;23.564;2023-07-31T01:13:52;5.23;;;4.30;;
10144;SDS011;5113;41.822;23.564;2023-07-31T01:17:00;3.73;;;3.53;;
10144;SDS011;5113;41.822;23.564;2023-07-31T01:20:10;4.10;;;3.80;;
10144;SDS011;5113;41.822;23.564;2023-07-31T01:23:26;5.10;;;4.70;;
10144;SDS011;5113;41.822;23.564;2023-07-31T01:27:04;4.97;;;4.33;;
10144;SDS011;5113;41.822;23.564;2023-07-31T01:30:14;4.60;;;4.20;;
10144;SDS011;5113;41.822;23.564;2023-07-31T01:33:22;4.80;;;4.40;;
10144;SDS011;5113;41.822;23.564;2023-07-31T01:36:28;5.30;;;4.80;;
10144;SDS011;5113;41.822;23.564;2023-07-31T01:39:36;5.00;;;4.07;;
10144;SDS011;5113;41.822;23.564;2023-07-31T01:42:44;5.57;;;5.07;;
10144;SDS011;5113;41.822;23.564;2023-07-31T01:45:50;5.07;;;4.33;;
10144;SDS011;5113;41.822;23.564;2023-07-31T01:48:57;4.67;;;4.33;;
10144;SDS011;5113;41.822;23.564;2023-07-31T01:52:03;4.67;;;4.27;;
10144;SDS011;5113;41.822;23.564;2023-07-31T01:55:10;5.17;;;4.67;;
10144;SDS011;5113;41.822;23.564;2023-07-31T01:58:18;6.03;;;4.57;;
10144;SDS011;5113;41.822;23.564;2023-07-31T02:01:25;5.63;;;4.80;;
10144;SDS011;5113;41.822;23.564;2023-07-31T02:04:31;5.00;;;4.60;;
10144;SDS011;5113;41.822;23.564;2023-07-31T02:07:38;5.30;;;4.90;;
10144;SDS011;5113;41.822;23.564;2023-07-31T02:10:44;5.53;;;5.03;;
10144;SDS011;5113;41.822;23.564;2023-07-31T02:13:52;7.33;;;5.20;;
10144;SDS011;5113;41.822;23.564;2023-07-31T02:16:58;4.97;;;4.53;;
10144;SDS011;5113;41.822;23.564;2023-07-31T02:20:06;4.97;;;4.47;;
10144;SDS011;5113;41.822;23.564;2023-07-31T02:23:13;4.83;;;4.43;;
10144;SDS011;5113;41.822;23.564;2023-07-31T02:26:19;5.20;;;4.70;;
10144;SDS011;5113;41.822;23.564;2023-07-31T02:29:27;6.03;;;5.43;;
10144;SDS011;5113;41.822;23.564;2023-07-31T02:32:34;5.77;;;5.27;;
10144;SDS011;5113;41.822;23.564;2023-07-31T02:35:40;5.80;;;5.20;;
10144;SDS011;5113;41.822;23.564;2023-07-31T02:38:47;5.17;;;4.67;;
10144;SDS011;5113;41.822;23.564;2023-07-31T02:41:53;5.40;;;4.90;;
10144;SDS011;5113;41.822;23.564;2023-07-31T02:45:01;6.93;;;5.07;;
10144;SDS011;5113;41.822;23.564;2023-07-31T02:48:08;5.03;;;4.63;;
10144;SDS011;5113;41.822;23.564;2023-07-31T02:51:15;5.87;;;5.27;;
10144;SDS011;5113;41.822;23.564;2023-07-31T02:54:21;6.00;;;5.07;;
10144;SDS011;5113;41.822;23.564;2023-07-31T02:57:28;5.83;;;5.33;;
10144;SDS011;5113;41.822;23.564;2023-07-31T03:00:35;6.03;;;5.43;;
10144;SDS011;5113;41.822;23.564;2023-07-31T03:03:47;5.27;;;4.77;;
10144;SDS011;5113;41.822;23.564;2023-07-31T03:06:53;6.33;;;5.73;;
10144;SDS011;5113;41.822;23.564;2023-07-31T03:10:00;5.30;;;4.80;;
10144;SDS011;5113;41.822;23.564;2023-07-31T03:13:06;5.43;;;4.93;;
10144;SDS011;5113;41.822;23.564;2023-07-31T03:16:14;5.93;;;4.97;;
10144;SDS011;5113;41.822;23.564;2023-07-31T03:19:21;6.40;;;5.80;;
10144;SDS011;5113;41.822;23.564;2023-07-31T03:22:27;6.57;;;5.33;;
10144;SDS011;5113;41.822;23.564;2023-07-31T03:25:34;5.90;;;5.40;;
10144;SDS011;5113;41.822;23.564;2023-07-31T03:28:40;6.00;;;5.37;;
10144;SDS011;5113;41.822;23.564;2023-07-31T03:31:48;5.77;;;5.27;;
10144;SDS011;5113;41.822;23.564;2023-07-31T03:34:54;5.67;;;5.10;;
10144;SDS011;5113;41.822;23.564;2023-07-31T03:38:01;6.03;;;5.50;;
10144;SDS011;5113;41.822;23.564;2023-07-31T03:41:07;6.00;;;5.40;;
10144;SDS011;5113;41.822;23.564;2023-07-31T03:44:14;4.73;;;4.27;;
10144;SDS011;5113;41.822;23.564;2023-07-31T03:47:23;6.17;;;5.57;;
10144;SDS011;5113;41.822;23.564;2023-07-31T03:50:29;5.53;;;5.03;;
10144;SDS011;5113;41.822;23.564;2023-07-31T03:53:36;6.23;;;5.63;;
10144;SDS011;5113;41.822;23.564;2023-07-31T03:56:42;4.77;;;4.30;;
10144;SDS011;5113;41.822;23.564;2023-07-31T03:59:49;7.30;;;5.23;;
10144;SDS011;5113;41.822;23.564;2023-07-31T04:02:57;5.33;;;4.83;;
10144;SDS011;5113;41.822;23.564;2023-07-31T04:06:03;5.43;;;4.40;;
10144;SDS011;5113;41.822;23.564;2023-07-31T04:09:11;4.73;;;4.33;;
10144;SDS011;5113;41.822;23.564;2023-07-31T04:12:18;7.23;;;6.30;;
10144;SDS011;5113;41.822;23.564;2023-07-31T04:15:25;5.30;;;4.80;;
10144;SDS011;5113;41.822;23.564;2023-07-31T04:18:33;5.20;;;4.80;;
10144;SDS011;5113;41.822;23.564;2023-07-31T04:21:39;7.57;;;5.00;;
10144;SDS011;5113;41.822;23.564;2023-07-31T04:24:46;10.80;;;5.63;;
10144;SDS011;5113;41.822;23.564;2023-07-31T04:27:52;6.53;;;4.83;;
10144;SDS011;5113;41.822;23.564;2023-07-31T04:30:59;5.70;;;4.73;;
10144;SDS011;5113;41.822;23.564;2023-07-31T04:34:06;5.80;;;5.30;;
10144;SDS011;5113;41.822;23.564;2023-07-31T04:37:13;5.37;;;4.57;;
10144;SDS011;5113;41.822;23.564;2023-07-31T04:40:20;4.80;;;4.40;;
10144;SDS011;5113;41.822;23.564;2023-07-31T04:43:26;5.47;;;4.97;;
10144;SDS011;5113;41.822;23.564;2023-07-31T04:46:32;5.87;;;5.27;;
10144;SDS011;5113;41.822;23.564;2023-07-31T04:49:40;4.50;;;4.10;;
10144;SDS011;5113;41.822;23.564;2023-07-31T04:52:46;4.90;;;4.50;;
10144;SDS011;5113;41.822;23.564;2023-07-31T04:55:53;5.57;;;4.67;;
10144;SDS011;5113;41.822;23.564;2023-07-31T04:58:59;5.53;;;5.03;;
10144;SDS011;5113;41.822;23.564;2023-07-31T05:02:06;5.30;;;4.80;;
10144;SDS011;5113;41.822;23.564;2023-07-31T05:05:15;4.93;;;4.50;;
10144;SDS011;5113;41.822;23.564;2023-07-31T05:08:21;4.97;;;4.53;;
10144;SDS011;5113;41.822;23.564;2023-07-31T05:11:28;4.77;;;4.37;;
10144;SDS011;5113;41.822;23.564;2023-07-31T05:14:34;4.57;;;4.23;;
10144;SDS011;5113;41.822;23.564;2023-07-31T05:17:41;4.87;;;4.37;;
10144;SDS011;5113;41.822;23.564;2023-07-31T05:20:49;4.33;;;4.03;;
10144;SDS011;5113;41.822;23.564;2023-07-31T05:23:55;4.43;;;4.10;;
10144;SDS011;5113;41.822;23.564;2023-07-31T05:27:01;6.40;;;4.80;;
10144;SDS011;5113;41.822;23.564;2023-07-31T05:30:09;5.37;;;4.87;;
10144;SDS011;5113;41.822;23.564;2023-07-31T05:33:15;5.03;;;4.53;;
10144;SDS011;5113;41.822;23.564;2023-07-31T05:36:23;3.83;;;3.53;;
10144;SDS011;5113;41.822;23.564;2023-07-31T05:39:29;4.73;;;4.23;;
10144;SDS011;5113;41.822;23.564;2023-07-31T05:42:36;4.00;;;3.70;;
10144;SDS011;5113;41.822;23.564;2023-07-31T05:45:43;4.57;;;4.20;;
10144;SDS011;5113;41.822;23.564;2023-07-31T05:48:50;7.33;;;5.10;;
10144;SDS011;5113;41.822;23.564;2023-07-31T05:51:57;5.23;;;4.73;;
10144;SDS011;5113;41.822;23.564;2023-07-31T05:55:04;5.03;;;4.37;;
10144;SDS011;5113;41.822;23.564;2023-07-31T05:58:11;4.20;;;3.87;;
10144;SDS011;5113;41.822;23.564;2023-07-31T06:01:17;4.80;;;4.30;;
10144;SDS011;5113;41.822;23.564;2023-07-31T06:04:26;4.03;;;3.67;;
10144;SDS011;5113;41.822;23.564;2023-07-31T06:07:34;4.87;;;4.47;;
10144;SDS011;5113;41.822;23.564;2023-07-31T06:10:40;4.53;;;4.10;;
10144;SDS011;5113;41.822;23.564;2023-07-31T06:13:47;4.10;;;3.70;;
10144;SDS011;5113;41.822;23.564;2023-07-31T06:16:54;4.43;;;4.03;;
10144;SDS011;5113;41.822;23.564;2023-07-31T06:20:00;4.90;;;4.20;;
10144;SDS011;5113;41.822;23.564;2023-07-31T06:23:09;4.10;;;3.73;;
10144;SDS011;5113;41.822;23.564;2023-07-31T06:26:15;4.60;;;4.17;;
10144;SDS011;5113;41.822;23.564;2023-07-31T06:29:22;3.50;;;3.23;;
10144;SDS011;5113;41.822;23.564;2023-07-31T06:32:28;4.00;;;3.70;;
10144;SDS011;5113;41.822;23.564;2023-07-31T06:35:35;4.43;;;3.87;;
10144;SDS011;5113;41.822;23.564;2023-07-31T06:38:43;4.50;;;4.10;;
10144;SDS011;5113;41.822;23.564;2023-07-31T06:41:49;4.83;;;4.33;;
10144;SDS011;5113;41.822;23.564;2023-07-31T06:44:56;7.88;;;5.25;;
10144;SDS011;5113;41.822;23.564;2023-07-31T06:48:03;5.90;;;4.53;;
10144;SDS011;5113;41.822;23.564;2023-07-31T06:51:10;5.70;;;5.00;;
10144;SDS011;5113;41.822;23.564;2023-07-31T06:54:18;7.17;;;5.67;;
10144;SDS011;5113;41.822;23.564;2023-07-31T06:57:24;5.77;;;5.17;;
10144;SDS011;5113;41.822;23.564;2023-07-31T07:00:30;5.30;;;4.80;;
10144;SDS011;5113;41.822;23.564;2023-07-31T07:03:37;5.30;;;4.80;;
10144;SDS011;5113;41.822;23.564;2023-07-31T07:06:43;6.20;;;5.53;;
10144;SDS011;5113;41.822;23.564;2023-07-31T07:09:51;5.45;;;4.90;;
10144;SDS011;5113;41.822;23.564;2023-07-31T07:12:58;6.05;;;4.93;;
10144;SDS011;5113;41.822;23.564;2023-07-31T07:16:04;7.45;;;5.75;;
10144;SDS011;5113;41.822;23.564;2023-07-31T07:19:11;6.90;;;6.13;;
10144;SDS011;5113;41.822;23.564;2023-07-31T07:22:17;7.45;;;6.70;;
10144;SDS011;5113;41.822;23.564;2023-07-31T07:25:25;9.52;;;7.18;;
10144;SDS011;5113;41.822;23.564;2023-07-31T07:28:32;7.60;;;6.70;;
10144;SDS011;5113;41.822;23.564;2023-07-31T07:31:38;10.07;;;7.00;;
10144;SDS011;5113;41.822;23.564;2023-07-31T07:34:44;9.97;;;7.47;;
10144;SDS011;5113;41.822;23.564;2023-07-31T07:37:51;9.73;;;6.90;;
10144;SDS011;5113;41.822;23.564;2023-07-31T07:40:59;8.93;;;7.13;;
10144;SDS011;5113;41.822;23.564;2023-07-31T07:44:05;7.07;;;6.20;;
10144;SDS011;5113;41.822;23.564;2023-07-31T07:47:12;8.60;;;7.17;;
10144;SDS011;5113;41.822;23.564;2023-07-31T07:50:19;9.20;;;6.80;;
10144;SDS011;5113;41.822;23.564;2023-07-31T07:53:25;9.97;;;6.63;;
10144;SDS011;5113;41.822;23.564;2023-07-31T07:56:33;7.53;;;6.83;;
10144;SDS011;5113;41.822;23.564;2023-07-31T07:59:42;6.53;;;5.40;;
10144;SDS011;5113;41.822;23.564;2023-07-31T08:02:48;9.23;;;7.23;;
10144;SDS011;5113;41.822;23.564;2023-07-31T08:05:57;8.53;;;7.00;;
10144;SDS011;5113;41.822;23.564;2023-07-31T08:09:04;9.00;;;7.17;;
10144;SDS011;5113;41.822;23.564;2023-07-31T08:12:12;7.60;;;6.60;;
10144;SDS011;5113;41.822;23.564;2023-07-31T08:15:19;6.47;;;5.30;;
10144;SDS011;5113;41.822;23.564;2023-07-31T08:18:26;7.67;;;6.20;;
10144;SDS011;5113;41.822;23.564;2023-07-31T08:21:32;9.07;;;7.30;;
10144;SDS011;5113;41.822;23.564;2023-07-31T08:24:39;5.97;;;5.43;;
10144;SDS011;5113;41.822;23.564;2023-07-31T08:27:47;6.00;;;5.13;;
10144;SDS011;5113;41.822;23.564;2023-07-31T08:30:54;9.97;;;6.93;;
10144;SDS011;5113;41.822;23.564;2023-07-31T08:34:00;7.93;;;6.50;;
10144;SDS011;5113;41.822;23.564;2023-07-31T08:37:07;6.97;;;5.87;;
10144;SDS011;5113;41.822;23.564;2023-07-31T08:40:13;7.23;;;5.73;;
10144;SDS011;5113;41.822;23.564;2023-07-31T08:43:22;7.13;;;6.00;;
10144;SDS011;5113;41.822;23.564;2023-07-31T08:46:31;8.15;;;5.18;;
10144;SDS011;5113;41.822;23.564;2023-07-31T08:49:38;8.18;;;6.15;;
10144;SDS011;5113;41.822;23.564;2023-07-31T08:52:46;7.85;;;6.70;;
10144;SDS011;5113;41.822;23.564;2023-07-31T08:55:54;8.20;;;6.35;;
10144;SDS011;5113;41.822;23.564;2023-07-31T08:59:03;8.45;;;7.07;;
10144;SDS011;5113;41.822;23.564;2023-07-31T09:02:11;13.45;;;6.68;;
10144;SDS011;5113;41.822;23.564;2023-07-31T09:05:21;6.80;;;5.45;;
10144;SDS011;5113;41.822;23.564;2023-07-31T09:08:29;6.63;;;6.03;;
10144;SDS011;5113;41.822;23.564;2023-07-31T09:11:37;10.25;;;7.32;;
10144;SDS011;5113;41.822;23.564;2023-07-31T09:14:45;6.82;;;4.90;;
10144;SDS011;5113;41.822;23.564;2023-07-31T09:17:58;7.72;;;6.35;;
10144;SDS011;5113;41.822;23.564;2023-07-31T09:21:08;6.05;;;5.35;;
10144;SDS011;5113;41.822;23.564;2023-07-31T09:24:16;6.68;;;5.97;;
10144;SDS011;5113;41.822;23.564;2023-07-31T09:27:36;4.78;;;4.32;;
10144;SDS011;5113;41.822;23.564;2023-07-31T09:30:53;5.50;;;5.00;;
10144;SDS011;5113;41.822;23.564;2023-07-31T09:33:59;6.07;;;4.80;;
10144;SDS011;5113;41.822;23.564;2023-07-31T09:37:07;5.85;;;5.30;;
10144;SDS011;5113;41.822;23.564;2023-07-31T09:40:14;7.20;;;5.18;;
10144;SDS011;5113;41.822;23.564;2023-07-31T09:43:32;8.30;;;4.63;;
10144;SDS011;5113;41.822;23.564;2023-07-31T09:46:40;4.90;;;4.43;;
10144;SDS011;5113;41.822;23.564;2023-07-31T09:49:48;3.40;;;3.08;;
10144;SDS011;5113;41.822;23.564;2023-07-31T09:52:55;3.90;;;3.55;;
10144;SDS011;5113;41.822;23.564;2023-07-31T09:56:01;3.90;;;3.60;;
10144;SDS011;5113;41.822;23.564;2023-07-31T09:59:08;4.00;;;3.60;;
10144;SDS011;5113;41.822;23.564;2023-07-31T10:02:20;3.88;;;3.58;;
10144;SDS011;5113;41.822;23.564;2023-07-31T10:05:30;5.80;;;3.75;;
10144;SDS011;5113;41.822;23.564;2023-07-31T10:08:39;5.78;;;3.85;;
10144;SDS011;5113;41.822;23.564;2023-07-31T10:11:51;4.50;;;4.07;;
10144;SDS011;5113;41.822;23.564;2023-07-31T10:15:01;4.05;;;3.28;;
10144;SDS011;5113;41.822;23.564;2023-07-31T10:18:10;3.88;;;3.50;;
10144;SDS011;5113;41.822;23.564;2023-07-31T10:21:18;4.40;;;4.00;;
10144;SDS011;5113;41.822;23.564;2023-07-31T10:24:25;3.90;;;3.58;;
10144;SDS011;5113;41.822;23.564;2023-07-31T10:27:33;3.40;;;3.20;;
10144;SDS011;5113;41.822;23.564;2023-07-31T10:30:41;4.00;;;3.33;;
10144;SDS011;5113;41.822;23.564;2023-07-31T10:33:49;4.05;;;3.72;;
10144;SDS011;5113;41.822;23.564;2023-07-31T10:40:27;4.57;;;4.18;;
10144;SDS011;5113;41.822;23.564;2023-07-31T10:43:33;4.22;;;3.63;;
10144;SDS011;5113;41.822;23.564;2023-07-31T10:46:39;3.85;;;3.55;;
10144;SDS011;5113;41.822;23.564;2023-07-31T10:49:48;3.15;;;2.85;;
10144;SDS011;5113;41.822;23.564;2023-07-31T10:52:55;2.80;;;2.60;;
10144;SDS011;5113;41.822;23.564;2023-07-31T10:56:03;3.55;;;3.35;;
10144;SDS011;5113;41.822;23.564;2023-07-31T10:59:10;3.38;;;3.08;;
10144;SDS011;5113;41.822;23.564;2023-07-31T11:02:25;4.68;;;3.58;;
10144;SDS011;5113;41.822;23.564;2023-07-31T11:09:08;3.50;;;3.20;;
10144;SDS011;5113;41.822;23.564;2023-07-31T11:12:19;3.40;;;3.10;;
10144;SDS011;5113;41.822;23.564;2023-07-31T11:15:27;3.35;;;3.05;;
10144;SDS011;5113;41.822;23.564;2023-07-31T11:18:34;3.50;;;3.20;;
10144;SDS011;5113;41.822;23.564;2023-07-31T11:21:42;3.85;;;3.30;;
10144;SDS011;5113;41.822;23.564;2023-07-31T11:24:49;3.75;;;3.45;;
10144;SDS011;5113;41.822;23.564;2023-07-31T11:27:55;2.58;;;2.38;;
10144;SDS011;5113;41.822;23.564;2023-07-31T11:31:01;3.47;;;3.13;;
10144;SDS011;5113;41.822;23.564;2023-07-31T11:34:08;3.50;;;3.20;;
10144;SDS011;5113;41.822;23.564;2023-07-31T11:37:16;3.22;;;3.03;;
10144;SDS011;5113;41.822;23.564;2023-07-31T11:40:23;2.80;;;2.60;;
10144;SDS011;5113;41.822;23.564;2023-07-31T11:43:36;3.28;;;2.90;;
10144;SDS011;5113;41.822;23.564;2023-07-31T11:46:43;3.28;;;3.08;;
10144;SDS011;5113;41.822;23.564;2023-07-31T11:49:50;2.97;;;2.78;;
10144;SDS011;5113;41.822;23.564;2023-07-31T11:52:59;2.78;;;2.50;;
10144;SDS011;5113;41.822;23.564;2023-07-31T11:56:10;2.53;;;2.33;;
10144;SDS011;5113;41.822;23.564;2023-07-31T11:59:19;2.72;;;2.55;;
10144;SDS011;5113;41.822;23.564;2023-07-31T12:02:25;3.50;;;3.10;;
10144;SDS011;5113;41.822;23.564;2023-07-31T12:05:32;3.63;;;3.33;;
10144;SDS011;5113;41.822;23.564;2023-07-31T12:08:42;2.92;;;2.72;;
10144;SDS011;5113;41.822;23.564;2023-07-31T12:11:48;2.60;;;2.45;;
10144;SDS011;5113;41.822;23.564;2023-07-31T12:14:55;3.50;;;3.20;;
10144;SDS011;5113;41.822;23.564;2023-07-31T12:18:03;2.15;;;2.05;;
10144;SDS011;5113;41.822;23.564;2023-07-31T12:21:10;2.53;;;2.35;;
10144;SDS011;5113;41.822;23.564;2023-07-31T12:24:19;2.30;;;2.17;;
10144;SDS011;5113;41.822;23.564;2023-07-31T12:27:32;2.40;;;2.30;;
10144;SDS011;5113;41.822;23.564;2023-07-31T12:30:39;3.00;;;2.80;;
10144;SDS011;5113;41.822;23.564;2023-07-31T12:33:47;2.80;;;2.60;;
10144;SDS011;5113;41.822;23.564;2023-07-31T12:36:55;3.55;;;3.00;;
10144;SDS011;5113;41.822;23.564;2023-07-31T12:40:03;2.72;;;2.53;;
10144;SDS011;5113;41.822;23.564;2023-07-31T12:43:13;2.67;;;2.47;;
10144;SDS011;5113;41.822;23.564;2023-07-31T12:46:20;3.53;;;3.22;;
10144;SDS011;5113;41.822;23.564;2023-07-31T12:49:27;4.40;;;3.95;;
10144;SDS011;5113;41.822;23.564;2023-07-31T12:52:33;4.57;;;4.07;;
10144;SDS011;5113;41.822;23.564;2023-07-31T12:55:41;8.45;;;5.68;;
10144;SDS011;5113;41.822;23.564;2023-07-31T12:58:48;4.30;;;3.90;;
10144;SDS011;5113;41.822;23.564;2023-07-31T13:01:54;4.35;;;4.00;;
10144;SDS011;5113;41.822;23.564;2023-07-31T13:05:01;4.50;;;4.10;;
10144;SDS011;5113;41.822;23.564;2023-07-31T13:08:08;4.13;;;3.75;;
10144;SDS011;5113;41.822;23.564;2023-07-31T13:11:15;4.20;;;3.80;;
10144;SDS011;5113;41.822;23.564;2023-07-31T13:14:22;4.35;;;3.95;;
10144;SDS011;5113;41.822;23.564;2023-07-31T13:17:28;4.30;;;3.55;;
10144;SDS011;5113;41.822;23.564;2023-07-31T13:20:35;3.85;;;3.55;;
10144;SDS011;5113;41.822;23.564;2023-07-31T13:23:41;3.60;;;3.30;;
10144;SDS011;5113;41.822;23.564;2023-07-31T13:26:49;4.47;;;4.07;;
10144;SDS011;5113;41.822;23.564;2023-07-31T13:29:55;4.28;;;3.88;;
10144;SDS011;5113;41.822;23.564;2023-07-31T13:33:02;3.80;;;3.50;;
10144;SDS011;5113;41.822;23.564;2023-07-31T13:36:08;3.92;;;3.35;;
10144;SDS011;5113;41.822;23.564;2023-07-31T13:39:15;3.13;;;2.92;;
10144;SDS011;5113;41.822;23.564;2023-07-31T13:42:23;3.58;;;3.30;;
10144;SDS011;5113;41.822;23.564;2023-07-31T13:45:29;3.70;;;3.40;;
10144;SDS011;5113;41.822;23.564;2023-07-31T13:48:36;3.08;;;2.78;;
10144;SDS011;5113;41.822;23.564;2023-07-31T13:51:43;3.13;;;2.90;;
10144;SDS011;5113;41.822;23.564;2023-07-31T13:54:49;3.47;;;3.08;;
10144;SDS011;5113;41.822;23.564;2023-07-31T13:57:58;3.53;;;3.22;;
10144;SDS011;5113;41.822;23.564;2023-07-31T14:01:04;4.47;;;3.35;;
10144;SDS011;5113;41.822;23.564;2023-07-31T14:04:11;3.97;;;3.67;;
10144;SDS011;5113;41.822;23.564;2023-07-31T14:07:17;2.40;;;2.28;;
10144;SDS011;5113;41.822;23.564;2023-07-31T14:10:24;4.30;;;2.42;;
10144;SDS011;5113;41.822;23.564;2023-07-31T14:13:32;3.38;;;2.85;;
10144;SDS011;5113;41.822;23.564;2023-07-31T14:16:39;2.53;;;2.33;;
10144;SDS011;5113;41.822;23.564;2023-07-31T14:19:46;3.25;;;2.95;;
10144;SDS011;5113;41.822;23.564;2023-07-31T14:22:53;2.60;;;2.40;;
10144;SDS011;5113;41.822;23.564;2023-07-31T14:26:00;2.80;;;2.60;;
10144;SDS011;5113;41.822;23.564;2023-07-31T14:29:08;2.40;;;2.17;;
10144;SDS011;5113;41.822;23.564;2023-07-31T14:32:14;2.75;;;2.55;;
10144;SDS011;5113;41.822;23.564;2023-07-31T14:35:20;3.22;;;2.70;;
10144;SDS011;5113;41.822;23.564;2023-07-31T14:38:27;3.33;;;3.03;;
10144;SDS011;5113;41.822;23.564;2023-07-31T14:41:33;3.45;;;2.60;;
10144;SDS011;5113;41.822;23.564;2023-07-31T14:44:41;3.08;;;2.67;;
10144;SDS011;5113;41.822;23.564;2023-07-31T14:47:47;2.53;;;2.33;;
10144;SDS011;5113;41.822;23.564;2023-07-31T14:50:54;2.70;;;2.50;;
10144;SDS011;5113;41.822;23.564;2023-07-31T14:54:00;2.38;;;2.28;;
10144;SDS011;5113;41.822;23.564;2023-07-31T14:57:08;2.42;;;2.22;;
10144;SDS011;5113;41.822;23.564;2023-07-31T15:00:16;2.63;;;2.42;;
10144;SDS011;5113;41.822;23.564;2023-07-31T15:03:23;4.15;;;2.45;;
10144;SDS011;5113;41.822;23.564;2023-07-31T15:06:31;3.45;;;3.15;;
10144;SDS011;5113;41.822;23.564;2023-07-31T15:09:37;6.30;;;3.53;;
10144;SDS011;5113;41.822;23.564;2023-07-31T15:12:44;3.80;;;3.50;;
10144;SDS011;5113;41.822;23.564;2023-07-31T15:15:52;2.85;;;2.75;;
10144;SDS011;5113;41.822;23.564;2023-07-31T15:19:00;2.88;;;2.67;;
10144;SDS011;5113;41.822;23.564;2023-07-31T15:22:06;3.47;;;2.60;;
10144;SDS011;5113;41.822;23.564;2023-07-31T15:25:14;3.13;;;2.78;;
10144;SDS011;5113;41.822;23.564;2023-07-31T15:28:20;3.00;;;2.80;;
10144;SDS011;5113;41.822;23.564;2023-07-31T15:31:29;3.58;;;2.55;;
10144;SDS011;5113;41.822;23.564;2023-07-31T15:34:35;3.60;;;3.35;;
10144;SDS011;5113;41.822;23.564;2023-07-31T15:37:41;2.33;;;2.22;;
10144;SDS011;5113;41.822;23.564;2023-07-31T15:40:48;3.58;;;3.30;;
10144;SDS011;5113;41.822;23.564;2023-07-31T15:43:55;3.10;;;2.90;;
10144;SDS011;5113;41.822;23.564;2023-07-31T15:47:03;2.58;;;2.40;;
10144;SDS011;5113;41.822;23.564;2023-07-31T15:50:10;2.80;;;2.70;;
10144;SDS011;5113;41.822;23.564;2023-07-31T15:53:17;4.13;;;3.72;;
10144;SDS011;5113;41.822;23.564;2023-07-31T15:56:24;3.20;;;3.00;;
10144;SDS011;5113;41.822;23.564;2023-07-31T15:59:30;3.90;;;3.50;;
10144;SDS011;5113;41.822;23.564;2023-07-31T16:02:38;3.47;;;3.17;;
10144;SDS011;5113;41.822;23.564;2023-07-31T16:05:45;3.63;;;3.33;;
10144;SDS011;5113;41.822;23.564;2023-07-31T16:08:52;3.72;;;3.42;;
10144;SDS011;5113;41.822;23.564;2023-07-31T16:11:59;3.55;;;3.22;;
10144;SDS011;5113;41.822;23.564;2023-07-31T16:15:06;4.03;;;3.40;;
10144;SDS011;5113;41.822;23.564;2023-07-31T16:18:14;3.60;;;3.30;;
10144;SDS011;5113;41.822;23.564;2023-07-31T16:21:21;4.38;;;3.95;;
10144;SDS011;5113;41.822;23.564;2023-07-31T16:24:27;4.30;;;3.90;;
10144;SDS011;5113;41.822;23.564;2023-07-31T16:27:34;4.32;;;3.92;;
10144;SDS011;5113;41.822;23.564;2023-07-31T16:30:40;4.35;;;3.83;;
10144;SDS011;5113;41.822;23.564;2023-07-31T16:33:49;5.25;;;4.30;;
10144;SDS011;5113;41.822;23.564;2023-07-31T16:36:55;3.67;;;3.28;;
10144;SDS011;5113;41.822;23.564;2023-07-31T16:40:02;4.70;;;4.28;;
10144;SDS011;5113;41.822;23.564;2023-07-31T16:43:09;5.60;;;4.30;;
10144;SDS011;5113;41.822;23.564;2023-07-31T16:46:16;4.38;;;3.95;;
10144;SDS011;5113;41.822;23.564;2023-07-31T16:49:24;5.30;;;4.38;;
10144;SDS011;5113;41.822;23.564;2023-07-31T16:52:30;4.82;;;4.40;;
10144;SDS011;5113;41.822;23.564;2023-07-31T16:55:37;5.07;;;4.57;;
10144;SDS011;5113;41.822;23.564;2023-07-31T16:58:43;4.38;;;3.92;;
10144;SDS011;5113;41.822;23.564;2023-07-31T17:01:50;5.95;;;4.57;;
10144;SDS011;5113;41.822;23.564;2023-07-31T17:04:59;6.60;;;5.28;;
10144;SDS011;5113;41.822;23.564;2023-07-31T17:08:05;5.00;;;4.55;;
10144;SDS011;5113;41.822;23.564;2023-07-31T17:11:12;5.07;;;4.57;;
10144;SDS011;5113;41.822;23.564;2023-07-31T17:14:19;5.40;;;4.90;;
10144;SDS011;5113;41.822;23.564;2023-07-31T17:17:25;4.55;;;4.15;;
10144;SDS011;5113;41.822;23.564;2023-07-31T17:20:34;5.15;;;4.65;;
10144;SDS011;5113;41.822;23.564;2023-07-31T17:23:41;5.15;;;4.57;;
10144;SDS011;5113;41.822;23.564;2023-07-31T17:26:47;5.80;;;4.60;;
10144;SDS011;5113;41.822;23.564;2023-07-31T17:29:55;6.13;;;5.43;;
10144;SDS011;5113;41.822;23.564;2023-07-31T17:33:01;4.63;;;4.28;;
10144;SDS011;5113;41.822;23.564;2023-07-31T17:36:09;9.45;;;7.25;;
10144;SDS011;5113;41.822;23.564;2023-07-31T17:39:16;6.95;;;5.57;;
10144;SDS011;5113;41.822;23.564;2023-07-31T17:42:23;4.60;;;4.20;;
10144;SDS011;5113;41.822;23.564;2023-07-31T17:45:30;5.82;;;4.47;;
10144;SDS011;5113;41.822;23.564;2023-07-31T17:48:37;4.97;;;4.57;;
10144;SDS011;5113;41.822;23.564;2023-07-31T17:51:45;5.60;;;4.67;;
10144;SDS011;5113;41.822;23.564;2023-07-31T17:54:52;4.85;;;4.30;;
10144;SDS011;5113;41.822;23.564;2023-07-31T17:57:59;5.82;;;5.15;;
10144;SDS011;5113;41.822;23.564;2023-07-31T18:01:05;5.57;;;5.07;;
10144;SDS011;5113;41.822;23.564;2023-07-31T18:04:12;4.60;;;3.97;;
10144;SDS011;5113;41.822;23.564;2023-07-31T18:07:20;5.00;;;4.07;;
10144;SDS011;5113;41.822;23.564;2023-07-31T18:10:27;4.82;;;4.30;;
10144;SDS011;5113;41.822;23.564;2023-07-31T18:13:33;5.00;;;4.47;;
10144;SDS011;5113;41.822;23.564;2023-07-31T18:16:40;5.13;;;4.67;;
10144;SDS011;5113;41.822;23.564;2023-07-31T18:19:47;5.60;;;4.63;;
10144;SDS011;5113;41.822;23.564;2023-07-31T18:22:54;7.43;;;5.70;;
10144;SDS011;5113;41.822;23.564;2023-07-31T18:26:01;6.33;;;5.20;;
10144;SDS011;5113;41.822;23.564;2023-07-31T18:29:07;5.37;;;4.87;;
10144;SDS011;5113;41.822;23.564;2023-07-31T18:32:14;5.97;;;4.90;;
10144;SDS011;5113;41.822;23.564;2023-07-31T18:35:21;4.30;;;4.00;;
10144;SDS011;5113;41.822;23.564;2023-07-31T18:38:29;3.90;;;3.50;;
10144;SDS011;5113;41.822;23.564;2023-07-31T18:41:36;4.27;;;3.53;;
10144;SDS011;5113;41.822;23.564;2023-07-31T18:44:44;3.53;;;3.23;;
10144;SDS011;5113;41.822;23.564;2023-07-31T18:47:51;2.93;;;2.73;;
10144;SDS011;5113;41.822;23.564;2023-07-31T18:50:57;3.13;;;2.93;;
10144;SDS011;5113;41.822;23.564;2023-07-31T18:54:06;3.00;;;2.80;;
10144;SDS011;5113;41.822;23.564;2023-07-31T18:57:12;3.10;;;2.80;;